logo
Search for airport 
image banner adimage banner adimage banner ad
image banner ad

EHS014 - Zwolle

Located in , Netherlands

ICAO - , IATA -

Data provided by Airmate  

General information

Coordinates: N52°35'5" E6°11'19"
Elevation is feet MSL.
 
View others Airports in Overijssel

Operational data

Special qualification required
Current time UTC:
Current local time:
Weather at : EHLE - Lelystad/Lelystad ( 48 km )
METAR: EHLE 180325Z AUTO 15002KT 9999 NSC 10/09 Q1013
TAF: TAF EHLE 172318Z 1800/1906 18003KT CAVOK PROB30 TEMPO 1802/1805 2500 BCFG BECMG 1812/1815 35007KT PROB40 TEMPO 1814/1821 7000 RA -SHRA FEW030TCU BKN045 PROB30 1822/1903 6000 SCT008 BKN012
View NOTAMs / SUP AIP / TFR affecting this airport [VIEW]
Communications frequencies: [VIEW]

Runways:

Airport contact information

Address: Netherlands

Satellite view of EHS014